Time;durP1;ratioP1;P1;durP2;ratioP2;P2;SDS_P1;SDS_P2;PMS_P1;PMS_P2;Temp;Humidity;BMP_temperature;BMP_pressure;BME280_temperature;BME280_humidity;BME280_pressure;Samples;Min_cycle;Max_cycle;Signal;HPM_P1;HPM_P2
2023/09/05 00:02:04;;;;;;;3.00;2.30;;;16.60;99.90;;;;;;4996511;28;20110;-35
2023/09/05 00:04:29;;;;;;;3.65;2.10;;;16.50;99.90;;;;;;4995814;28;20061;-35
2023/09/05 00:06:58;;;;;;;2.60;2.28;;;16.40;99.90;;;;;;4998876;28;20128;-36
2023/09/05 00:09:24;;;;;;;3.20;2.33;;;16.30;99.90;;;;;;4997128;28;20086;-33
2023/09/05 00:11:50;;;;;;;2.45;2.20;;;16.30;99.90;;;;;;4996032;28;20114;-34
2023/09/05 00:14:18;;;;;;;3.13;2.33;;;16.30;99.90;;;;;;4996098;28;20534;-33
2023/09/05 00:16:43;;;;;;;3.53;2.33;;;16.30;99.90;;;;;;4997287;28;20022;-34
2023/09/05 00:19:10;;;;;;;2.90;2.35;;;16.20;99.90;;;;;;4994466;28;20052;-33
2023/09/05 00:21:35;;;;;;;3.83;2.53;;;16.00;99.90;;;;;;4996311;28;20046;-35
2023/09/05 00:24:28;;;;;;;3.03;2.22;;;15.90;99.90;;;;;;4997047;28;20419;-36
2023/09/05 00:26:55;;;;;;;2.78;2.28;;;15.80;99.90;;;;;;4999309;28;20112;-34
2023/09/05 00:29:23;;;;;;;4.97;2.60;;;15.70;99.90;;;;;;4999844;28;20030;-35
2023/09/05 00:31:49;;;;;;;2.60;2.40;;;15.70;99.90;;;;;;4995318;28;20037;-38
2023/09/05 00:34:15;;;;;;;3.63;2.53;;;15.60;99.90;;;;;;4994280;28;20543;-34
2023/09/05 00:36:41;;;;;;;2.70;2.20;;;15.60;99.90;;;;;;4995957;28;20105;-35
2023/09/05 00:39:07;;;;;;;3.33;2.30;;;15.50;99.90;;;;;;5002721;28;20112;-34
2023/09/05 00:41:32;;;;;;;2.83;2.17;;;15.40;99.90;;;;;;5000293;28;20566;-35
2023/09/05 00:43:59;;;;;;;3.45;2.17;;;15.30;99.90;;;;;;4997422;28;20029;-36
2023/09/05 00:46:25;;;;;;;3.67;2.50;;;15.20;99.90;;;;;;4994397;28;20030;-36
2023/09/05 00:48:52;;;;;;;2.85;2.53;;;15.20;99.90;;;;;;4993509;28;20095;-38
2023/09/05 00:51:21;;;;;;;3.33;2.92;;;15.10;99.90;;;;;;4993856;28;20040;-34
2023/09/05 00:53:46;;;;;;;4.30;2.72;;;15.10;99.90;;;;;;4996520;28;20132;-33
2023/09/05 00:56:12;;;;;;;4.25;2.65;;;15.10;99.90;;;;;;4996272;28;20266;-39
2023/09/05 00:58:37;;;;;;;3.67;2.70;;;15.10;99.90;;;;;;4996712;28;20380;-34
2023/09/05 01:01:03;;;;;;;4.28;2.70;;;15.10;99.90;;;;;;4995876;28;20034;-38
2023/09/05 01:03:29;;;;;;;4.78;3.25;;;15.10;99.90;;;;;;4995689;28;20523;-40
2023/09/05 01:06:00;;;;;;;4.82;3.10;;;15.10;99.90;;;;;;4993073;28;20033;-36
2023/09/05 01:08:43;;;;;;;5.63;3.80;;;15.20;99.90;;;;;;5013267;28;20030;-35
2023/09/05 01:11:08;;;;;;;3.88;3.17;;;15.10;99.90;;;;;;4979335;28;20021;-38
2023/09/05 01:13:38;;;;;;;4.40;3.60;;;15.20;99.90;;;;;;4999026;28;20141;-39
2023/09/05 01:16:04;;;;;;;3.47;3.08;;;15.10;99.90;;;;;;5000277;28;20064;-37
2023/09/05 01:18:33;;;;;;;3.47;3.17;;;15.10;99.90;;;;;;4995511;28;20021;-35
2023/09/05 01:21:26;;;;;;;3.30;3.00;;;15.10;99.90;;;;;;4993880;28;20076;-39
2023/09/05 01:24:19;;;;;;;3.78;3.15;;;15.10;99.90;;;;;;4984301;28;20033;-37
2023/09/05 01:26:46;;;;;;;5.68;3.50;;;15.10;99.90;;;;;;4980851;28;20063;-39
2023/09/05 01:29:13;;;;;;;5.03;3.58;;;15.00;99.90;;;;;;5142195;22;20791;-40
2023/09/05 01:31:39;;;;;;;4.32;3.08;;;15.00;99.90;;;;;;4915648;28;20098;-36
2023/09/05 01:34:05;;;;;;;4.07;3.28;;;14.90;99.90;;;;;;4930919;28;20311;-39
2023/09/05 01:36:30;;;;;;;4.28;2.47;;;14.70;99.90;;;;;;4936320;28;20095;-36
2023/09/05 01:38:56;;;;;;;4.25;3.40;;;14.60;99.90;;;;;;4933081;28;20547;-37
2023/09/05 01:41:21;;;;;;;4.15;2.97;;;14.60;99.90;;;;;;4939807;28;20043;-38
2023/09/05 01:43:47;;;;;;;4.68;2.85;;;14.50;99.90;;;;;;4937582;28;20170;-40
2023/09/05 01:46:13;;;;;;;4.70;2.90;;;14.50;99.90;;;;;;4936382;28;20035;-38
2023/09/05 01:48:38;;;;;;;4.55;3.05;;;14.70;99.90;;;;;;4935829;28;20035;-40
2023/09/05 01:51:04;;;;;;;6.47;2.63;;;14.70;99.90;;;;;;4937232;28;20038;-39
2023/09/05 01:53:30;;;;;;;3.22;2.90;;;14.60;99.90;;;;;;4933358;28;20310;-39
2023/09/05 01:55:57;;;;;;;4.03;2.85;;;14.70;99.90;;;;;;4953308;28;20208;-39
2023/09/05 01:58:24;;;;;;;4.60;2.80;;;14.70;99.90;;;;;;4936894;28;20027;-37
2023/09/05 02:00:49;;;;;;;4.07;3.00;;;14.80;99.90;;;;;;4938921;28;20644;-38
2023/09/05 02:03:15;;;;;;;3.05;2.53;;;14.80;99.90;;;;;;4938899;28;20035;-39
2023/09/05 02:05:40;;;;;;;4.18;2.80;;;14.90;99.90;;;;;;4938219;28;20058;-39
2023/09/05 02:08:06;;;;;;;3.15;2.50;;;14.90;99.90;;;;;;4936588;28;20042;-39
2023/09/05 02:10:32;;;;;;;3.15;2.60;;;15.00;99.90;;;;;;4937816;28;20393;-39
2023/09/05 02:12:58;;;;;;;4.28;2.75;;;14.90;99.90;;;;;;4940906;28;20027;-38
2023/09/05 02:15:23;;;;;;;3.67;2.58;;;15.00;99.90;;;;;;4939877;28;20034;-39
2023/09/05 02:17:49;;;;;;;4.65;2.80;;;15.00;99.90;;;;;;4938905;28;20036;-38
2023/09/05 02:20:15;;;;;;;2.78;2.47;;;15.10;99.90;;;;;;4938809;28;20603;-36
2023/09/05 02:22:43;;;;;;;4.38;2.60;;;15.10;99.90;;;;;;4937330;28;20066;-35
2023/09/05 02:25:08;;;;;;;4.50;2.45;;;14.90;99.90;;;;;;4939507;28;20448;-36
2023/09/05 02:27:34;;;;;;;3.10;2.50;;;14.90;99.90;;;;;;4938275;28;20031;-39
2023/09/05 02:30:01;;;;;;;3.10;2.53;;;14.90;99.90;;;;;;4934712;28;20057;-39
2023/09/05 02:32:29;;;;;;;3.30;2.38;;;14.90;99.90;;;;;;4935731;28;20040;-40
2023/09/05 02:34:56;;;;;;;4.22;2.30;;;14.90;99.90;;;;;;4936615;28;20035;-36
2023/09/05 02:37:22;;;;;;;2.97;2.63;;;14.90;99.90;;;;;;4938966;28;20031;-38
2023/09/05 02:39:47;;;;;;;5.45;2.67;;;14.90;99.90;;;;;;4942719;28;20409;-32
2023/09/05 02:42:13;;;;;;;2.67;2.45;;;14.90;99.90;;;;;;4940871;28;20027;-35
2023/09/05 02:44:39;;;;;;;3.80;2.80;;;14.90;99.90;;;;;;4943316;28;20039;-30
2023/09/05 02:47:04;;;;;;;4.07;2.92;;;14.80;99.90;;;;;;4942067;28;20051;-30
2023/09/05 02:49:33;;;;;;;3.63;2.55;;;14.80;99.90;;;;;;4941230;28;20067;-37
2023/09/05 02:51:59;;;;;;;;;;;14.80;99.90;;;;;;4946259;28;20591;-30
2023/09/05 02:54:27;;;;;;;4.47;2.53;;;14.80;99.90;;;;;;4942422;28;20061;-30
2023/09/05 02:56:54;;;;;;;3.75;2.55;;;14.80;99.90;;;;;;4955361;28;20034;-34
2023/09/05 02:59:20;;;;;;;2.65;2.35;;;14.80;99.90;;;;;;4941355;28;20090;-32
2023/09/05 03:01:46;;;;;;;3.50;2.67;;;14.80;99.90;;;;;;4943245;28;20035;-36
2023/09/05 03:04:15;;;;;;;3.50;2.47;;;14.80;99.90;;;;;;4942118;28;20063;-32
2023/09/05 03:06:41;;;;;;;3.90;2.55;;;14.70;99.90;;;;;;4939038;28;20031;-34
2023/09/05 03:09:07;;;;;;;2.63;2.42;;;14.80;99.90;;;;;;4940916;28;20050;-34
2023/09/05 03:11:32;;;;;;;3.75;2.90;;;14.70;99.90;;;;;;4942398;28;20421;-35
2023/09/05 03:13:58;;;;;;;3.78;3.30;;;14.70;99.90;;;;;;4942403;28;20031;-34
2023/09/05 03:16:24;;;;;;;3.03;2.60;;;14.70;99.90;;;;;;4938028;28;20513;-33
2023/09/05 03:18:50;;;;;;;4.03;2.85;;;14.70;99.90;;;;;;4943296;28;20516;-30
2023/09/05 03:21:16;;;;;;;3.50;2.75;;;14.70;99.90;;;;;;4946151;28;20041;-33
2023/09/05 03:23:42;;;;;;;5.90;2.92;;;14.70;99.90;;;;;;4941923;28;20518;-33
2023/09/05 03:26:08;;;;;;;3.03;2.72;;;14.60;99.90;;;;;;4938475;28;20040;-34
2023/09/05 03:28:43;;;;;;;3.63;2.90;;;14.60;99.90;;;;;;4938263;28;20134;-33
2023/09/05 03:31:09;;;;;;;3.00;2.75;;;14.60;99.90;;;;;;4940022;28;20055;-34
2023/09/05 03:33:34;;;;;;;3.65;2.70;;;14.60;99.90;;;;;;4941194;28;20062;-31
2023/09/05 03:36:00;;;;;;;4.85;3.42;;;14.60;99.90;;;;;;4944215;28;20751;-35
2023/09/05 03:38:30;;;;;;;3.65;2.70;;;14.60;99.90;;;;;;4943273;28;20030;-35
2023/09/05 03:40:55;;;;;;;3.70;3.08;;;14.70;99.90;;;;;;4944656;28;20027;-33
2023/09/05 03:43:21;;;;;;;3.22;2.92;;;14.60;99.90;;;;;;4941033;28;20035;-32
2023/09/05 03:45:48;;;;;;;3.78;2.92;;;14.60;99.90;;;;;;4943041;28;20037;-31
2023/09/05 03:48:14;;;;;;;5.40;3.42;;;14.60;99.90;;;;;;4940821;28;20141;-34
2023/09/05 03:50:40;;;;;;;3.13;2.72;;;14.50;99.90;;;;;;4940893;28;20037;-36
2023/09/05 03:53:06;;;;;;;4.03;2.90;;;14.60;99.90;;;;;;4941589;28;20110;-33
2023/09/05 03:55:34;;;;;;;5.25;2.80;;;14.50;99.90;;;;;;4941537;28;20027;-34
2023/09/05 03:58:03;;;;;;;4.97;2.80;;;14.50;99.90;;;;;;4939915;28;20027;-30
2023/09/05 04:00:32;;;;;;;4.22;2.78;;;14.40;99.90;;;;;;4954495;28;20066;-36
2023/09/05 04:02:58;;;;;;;4.30;3.15;;;14.40;99.90;;;;;;4942396;28;20093;-32
2023/09/05 04:05:24;;;;;;;3.83;3.13;;;14.40;99.90;;;;;;4946009;28;20054;-33
2023/09/05 04:07:50;;;;;;;4.30;3.10;;;14.30;99.90;;;;;;4944192;28;20075;-34
2023/09/05 04:10:16;;;;;;;5.70;3.20;;;14.30;99.90;;;;;;4944754;28;20607;-32
2023/09/05 04:12:41;;;;;;;4.03;2.92;;;14.20;99.90;;;;;;4941188;28;20574;-36
2023/09/05 04:15:07;;;;;;;5.03;3.33;;;14.20;99.90;;;;;;4943721;28;20023;-33
2023/09/05 04:17:33;;;;;;;3.20;2.90;;;14.10;99.90;;;;;;4955739;28;20049;-31
2023/09/05 04:19:59;;;;;;;5.53;3.42;;;14.00;99.90;;;;;;4940443;28;20028;-31
2023/09/05 04:22:28;;;;;;;4.30;2.78;;;13.90;99.90;;;;;;4939176;28;20526;-31
2023/09/05 04:24:55;;;;;;;4.38;3.45;;;13.90;99.90;;;;;;4940894;28;20043;-36
2023/09/05 04:27:21;;;;;;;5.18;3.42;;;13.90;99.90;;;;;;4940054;28;20993;-35
2023/09/05 04:29:51;;;;;;;4.97;3.33;;;13.90;99.90;;;;;;4948786;28;20085;-33
2023/09/05 04:32:19;;;;;;;4.97;3.10;;;13.80;99.90;;;;;;4967305;28;20031;-33
2023/09/05 04:34:45;;;;;;;3.92;3.40;;;13.90;99.90;;;;;;4943328;28;20042;-37
2023/09/05 04:37:10;;;;;;;4.57;3.40;;;13.80;99.90;;;;;;4941908;28;20393;-33
2023/09/05 04:39:37;;;;;;;6.00;3.72;;;13.70;99.90;;;;;;4940475;28;20039;-32
2023/09/05 04:42:03;;;;;;;4.43;3.50;;;13.70;99.90;;;;;;4937638;28;20028;-33
2023/09/05 04:44:29;;;;;;;5.38;3.50;;;13.70;99.90;;;;;;4937400;28;20117;-36
2023/09/05 04:47:28;;;;;;;4.97;3.40;;;13.80;99.90;;;;;;4941132;28;20046;-33
2023/09/05 04:49:56;;;;;;;6.13;3.53;;;13.80;99.90;;;;;;4966996;28;20509;-34
2023/09/05 04:52:26;;;;;;;4.93;4.00;;;13.80;99.90;;;;;;4940037;28;20028;-35
2023/09/05 04:54:53;;;;;;;4.30;3.45;;;13.70;99.90;;;;;;4941563;28;20074;-35
2023/09/05 04:57:19;;;;;;;4.70;3.00;;;13.80;99.90;;;;;;4936277;28;20032;-34
2023/09/05 04:59:47;;;;;;;5.43;3.58;;;13.90;99.90;;;;;;4936348;28;20965;-39
2023/09/05 05:02:16;;;;;;;5.30;3.40;;;13.90;99.90;;;;;;4938929;28;20039;-40
2023/09/05 05:04:43;;;;;;;4.88;3.50;;;13.90;99.90;;;;;;4934625;28;20066;-37
2023/09/05 05:07:08;;;;;;;4.25;3.20;;;14.00;99.90;;;;;;4942227;28;20038;-39
2023/09/05 05:09:34;;;;;;;5.35;3.78;;;13.90;99.90;;;;;;4935494;28;20035;-38
2023/09/05 05:12:00;;;;;;;5.70;3.72;;;14.00;99.90;;;;;;4939280;28;20035;-36
2023/09/05 05:14:28;;;;;;;5.72;3.20;;;14.00;99.90;;;;;;4938228;28;20558;-39
2023/09/05 05:16:53;;;;;;;5.55;3.30;;;13.90;99.90;;;;;;4938716;28;20789;-38
2023/09/05 05:19:23;;;;;;;4.68;3.63;;;14.00;99.90;;;;;;4935232;28;20043;-40
2023/09/05 05:21:50;;;;;;;5.53;3.45;;;14.00;99.90;;;;;;4938617;28;20095;-39
2023/09/05 05:24:15;;;;;;;4.65;3.45;;;14.10;99.90;;;;;;4934632;28;20039;-38
2023/09/05 05:26:43;;;;;;;4.65;3.33;;;14.20;99.90;;;;;;4938799;28;20050;-35
2023/09/05 05:29:09;;;;;;;3.55;2.90;;;14.20;99.90;;;;;;4939376;28;20117;-37
2023/09/05 05:31:34;;;;;;;4.65;3.63;;;14.20;99.90;;;;;;4937482;28;20051;-34
2023/09/05 05:34:00;;;;;;;3.50;3.00;;;14.30;99.90;;;;;;4938924;28;20069;-37
2023/09/05 05:36:29;;;;;;;4.80;3.20;;;14.40;99.90;;;;;;4937972;28;20500;-40
2023/09/05 05:38:54;;;;;;;4.68;3.08;;;14.40;99.90;;;;;;4938370;28;20093;-40
2023/09/05 05:41:20;;;;;;;4.78;3.20;;;14.50;99.90;;;;;;4938055;28;20859;-39
2023/09/05 05:43:46;;;;;;;3.42;2.92;;;14.60;99.90;;;;;;4936058;28;20039;-39
2023/09/05 05:46:12;;;;;;;6.22;2.90;;;14.60;99.90;;;;;;4936909;28;20417;-38
2023/09/05 05:48:38;;;;;;;4.07;3.17;;;14.70;99.90;;;;;;4946734;28;20469;-40
2023/09/05 05:51:04;;;;;;;3.83;3.17;;;14.70;99.90;;;;;;4937876;28;20027;-39
2023/09/05 05:53:29;;;;;;;3.20;2.90;;;14.80;99.90;;;;;;4935963;28;20480;-36
2023/09/05 05:55:55;;;;;;;6.18;3.15;;;14.80;99.90;;;;;;4937602;28;20510;-37
2023/09/05 05:58:21;;;;;;;4.32;3.30;;;14.90;99.90;;;;;;4935862;28;20062;-38
2023/09/05 06:00:50;;;;;;;5.78;3.40;;;14.90;99.90;;;;;;4934280;28;20973;-36
2023/09/05 06:03:20;;;;;;;4.93;3.30;;;15.00;99.90;;;;;;4937822;28;20043;-33
2023/09/05 06:05:47;;;;;;;5.43;2.60;;;15.10;99.90;;;;;;4938860;28;20062;-38
2023/09/05 06:08:13;;;;;;;3.13;2.83;;;15.10;99.90;;;;;;4936044;28;20739;-39
2023/09/05 06:10:39;;;;;;;3.47;2.65;;;15.10;99.90;;;;;;4932229;28;20582;-38
2023/09/05 06:13:06;;;;;;;3.42;2.88;;;15.10;99.90;;;;;;4939223;28;20113;-38
2023/09/05 06:15:33;;;;;;;5.28;3.00;;;15.20;99.90;;;;;;4937388;28;20062;-36
2023/09/05 06:18:02;;;;;;;4.22;3.08;;;15.30;99.90;;;;;;4940024;28;20026;-38
2023/09/05 06:20:34;;;;;;;5.30;2.90;;;15.40;99.90;;;;;;4955630;28;20145;-34
2023/09/05 06:23:01;;;;;;;3.63;2.90;;;15.40;99.90;;;;;;4939046;28;20027;-34
2023/09/05 06:25:27;;;;;;;3.22;2.85;;;15.50;99.90;;;;;;4934200;28;20695;-35
2023/09/05 06:27:53;;;;;;;6.38;2.83;;;15.50;99.90;;;;;;4936167;28;20035;-35
2023/09/05 06:30:19;;;;;;;3.88;2.65;;;15.60;99.90;;;;;;4967706;28;20041;-35
2023/09/05 06:32:46;;;;;;;4.35;3.13;;;15.60;99.90;;;;;;4939053;28;20035;-38
2023/09/05 06:35:12;;;;;;;3.42;3.13;;;15.70;99.90;;;;;;4964825;28;20031;-37
2023/09/05 06:37:39;;;;;;;4.25;3.55;;;15.70;99.90;;;;;;4919788;28;20039;-36
2023/09/05 06:40:09;;;;;;;5.88;3.13;;;15.80;99.90;;;;;;4923359;28;20032;-35
2023/09/05 06:42:39;;;;;;;3.88;3.22;;;15.90;99.90;;;;;;4934450;28;20038;-38
2023/09/05 06:45:05;;;;;;;7.03;3.22;;;16.00;99.90;;;;;;4938028;28;20098;-39
2023/09/05 06:47:31;;;;;;;4.30;3.30;;;16.00;99.90;;;;;;4942433;28;20079;-37
2023/09/05 06:49:57;;;;;;;4.13;3.00;;;16.10;99.90;;;;;;4944473;28;20405;-37
2023/09/05 06:52:22;;;;;;;5.18;3.28;;;16.10;99.90;;;;;;4943415;28;20515;-36
2023/09/05 06:54:48;;;;;;;4.38;3.60;;;16.10;99.90;;;;;;4957599;28;20240;-40
2023/09/05 06:57:16;;;;;;;2.90;2.30;;;16.20;99.90;;;;;;4942228;28;20635;-40
2023/09/05 06:59:42;;;;;;;3.03;2.70;;;16.10;99.90;;;;;;4943257;28;20038;-39
2023/09/05 07:02:08;;;;;;;4.75;2.97;;;16.30;99.90;;;;;;4940401;28;20039;-40
2023/09/05 07:04:36;;;;;;;5.60;2.67;;;16.50;99.90;;;;;;4942952;28;20082;-38
2023/09/05 07:07:03;;;;;;;5.80;3.33;;;16.50;99.90;;;;;;4946056;28;20027;-41
2023/09/05 07:09:30;;;;;;;6.60;3.40;;;16.60;99.90;;;;;;4938665;28;20035;-37
2023/09/05 07:11:57;;;;;;;4.22;3.15;;;16.70;99.90;;;;;;4937687;28;20250;-40
2023/09/05 07:14:23;;;;;;;4.35;3.13;;;16.70;99.90;;;;;;4966682;28;20114;-33
2023/09/05 07:16:49;;;;;;;2.92;2.60;;;16.60;99.90;;;;;;4938383;28;20035;-42
2023/09/05 07:19:16;;;;;;;3.63;2.97;;;16.70;99.90;;;;;;4938412;28;20055;-40
2023/09/05 07:21:42;;;;;;;4.23;3.07;;;16.90;99.90;;;;;;4937702;28;20039;-40
2023/09/05 07:24:10;;;;;;;4.65;3.45;;;16.90;99.90;;;;;;4937774;28;20027;-40
2023/09/05 07:26:38;;;;;;;3.22;2.65;;;17.10;99.90;;;;;;4932014;28;20039;-41
2023/09/05 07:29:04;;;;;;;5.70;3.40;;;17.20;99.90;;;;;;4940749;28;20114;-40
2023/09/05 07:31:31;;;;;;;3.70;2.90;;;17.30;99.90;;;;;;4940466;28;20052;-38
2023/09/05 07:34:00;;;;;;;3.40;2.65;;;17.30;99.90;;;;;;4941916;28;20494;-39
2023/09/05 07:36:27;;;;;;;2.67;2.45;;;17.40;99.90;;;;;;4941301;28;20035;-39
2023/09/05 07:38:53;;;;;;;4.75;2.80;;;17.50;99.90;;;;;;4940720;28;20101;-38
2023/09/05 07:41:19;;;;;;;5.47;2.90;;;17.60;99.90;;;;;;4939571;28;20467;-36
2023/09/05 07:43:45;;;;;;;4.43;3.17;;;17.70;99.90;;;;;;4940812;28;20035;-39
2023/09/05 07:46:11;;;;;;;3.90;2.85;;;17.70;99.90;;;;;;4945476;28;20767;-35
2023/09/05 07:48:37;;;;;;;3.28;2.50;;;17.70;99.90;;;;;;4939128;28;20074;-41
2023/09/05 07:51:06;;;;;;;3.58;2.72;;;17.70;99.90;;;;;;4940696;28;20523;-40
2023/09/05 07:53:35;;;;;;;3.47;2.75;;;17.90;99.90;;;;;;4940111;28;20073;-38
2023/09/05 07:56:02;;;;;;;5.00;2.38;;;18.00;99.90;;;;;;4939203;28;20027;-41
2023/09/05 07:58:28;;;;;;;4.72;2.97;;;18.10;99.90;;;;;;4939663;28;20039;-36
2023/09/05 08:00:54;;;;;;;4.78;2.55;;;18.10;99.90;;;;;;4939630;28;20079;-40
2023/09/05 08:03:25;;;;;;;2.47;2.28;;;18.30;99.90;;;;;;4939093;28;20428;-39
2023/09/05 08:05:55;;;;;;;4.38;2.83;;;18.30;99.90;;;;;;4938072;28;20034;-38
2023/09/05 08:08:21;;;;;;;4.22;2.92;;;18.40;99.90;;;;;;4942322;28;20061;-39
2023/09/05 08:10:47;;;;;;;2.80;2.50;;;18.40;99.90;;;;;;4942973;28;20063;-39
2023/09/05 08:13:14;;;;;;;5.28;2.88;;;18.40;99.90;;;;;;4937872;28;20047;-38
2023/09/05 08:15:43;;;;;;;3.45;2.33;;;18.60;99.90;;;;;;4941160;28;20042;-36
2023/09/05 08:18:10;;;;;;;3.00;2.33;;;18.70;99.90;;;;;;4944642;28;20186;-37
2023/09/05 08:20:36;;;;;;;2.90;2.00;;;18.80;99.90;;;;;;4940001;28;20039;-38
2023/09/05 08:23:02;;;;;;;2.60;2.40;;;18.80;99.90;;;;;;4937426;28;20069;-42
2023/09/05 08:25:28;;;;;;;2.85;2.50;;;18.80;99.90;;;;;;4942314;28;20023;-37
2023/09/05 08:27:54;;;;;;;4.18;2.42;;;19.00;99.90;;;;;;4954310;28;20079;-41
2023/09/05 08:30:24;;;;;;;4.35;2.40;;;19.10;99.90;;;;;;4940244;28;20109;-38
2023/09/05 08:32:52;;;;;;;2.47;2.15;;;19.30;99.90;;;;;;4941008;28;20536;-39
2023/09/05 08:35:18;;;;;;;3.95;2.60;;;19.30;99.90;;;;;;4944923;28;20531;-38
2023/09/05 08:37:43;;;;;;;4.18;2.65;;;19.30;99.90;;;;;;4938519;28;20085;-31
2023/09/05 08:40:10;;;;;;;2.92;2.15;;;19.20;99.90;;;;;;4937109;28;20043;-33
2023/09/05 08:42:37;;;;;;;3.03;2.63;;;19.10;99.90;;;;;;4943692;28;20039;-34
2023/09/05 08:45:04;;;;;;;2.88;2.25;;;19.20;99.90;;;;;;4945149;28;20106;-34
2023/09/05 08:47:30;;;;;;;2.40;2.20;;;19.20;99.90;;;;;;4941926;28;20034;-37
2023/09/05 08:49:59;;;;;;;3.45;2.30;;;19.20;99.90;;;;;;4937797;28;20154;-36
2023/09/05 08:52:37;;;;;;;3.22;2.50;;;19.40;99.90;;;;;;4950806;28;20839;-40
2023/09/05 08:55:03;;;;;;;2.50;2.30;;;19.50;99.90;;;;;;4933304;28;20027;-39
2023/09/05 08:57:31;;;;;;;2.90;2.55;;;19.40;99.90;;;;;;4940566;28;20511;-34
2023/09/05 08:59:57;;;;;;;2.55;2.35;;;19.60;99.90;;;;;;4937462;28;20094;-37
2023/09/05 09:02:23;;;;;;;3.78;2.30;;;19.80;99.90;;;;;;4931298;28;20039;-40
2023/09/05 09:04:49;;;;;;;2.88;2.58;;;19.80;99.90;;;;;;4934887;28;20050;-39
2023/09/05 09:07:15;;;;;;;2.83;2.28;;;19.70;99.90;;;;;;4933044;28;20063;-39
2023/09/05 09:09:40;;;;;;;3.83;2.65;;;19.70;99.90;;;;;;4929784;28;20185;-37
2023/09/05 09:12:07;;;;;;;4.10;2.45;;;19.80;99.90;;;;;;4932552;28;20034;-38
2023/09/05 09:14:33;;;;;;;3.05;2.60;;;19.90;99.90;;;;;;4934377;28;20034;-36
2023/09/05 09:17:04;;;;;;;4.10;2.70;;;19.90;99.90;;;;;;4937052;28;20384;-36
2023/09/05 09:19:31;;;;;;;2.92;2.25;;;20.10;99.90;;;;;;4956659;28;20447;-36
2023/09/05 09:22:03;;;;;;;4.55;2.38;;;20.10;99.90;;;;;;4924039;28;20038;-37
2023/09/05 09:24:33;;;;;;;3.20;2.30;;;20.20;99.90;;;;;;4936551;28;20550;-35
2023/09/05 09:27:02;;;;;;;3.33;2.20;;;20.30;99.90;;;;;;4937377;28;20035;-38
2023/09/05 09:29:27;;;;;;;2.45;2.08;;;20.40;99.90;;;;;;4935936;28;20057;-38
2023/09/05 09:32:06;;;;;;;2.53;2.33;;;20.40;99.90;;;;;;4933316;28;20154;-41
2023/09/05 09:34:35;;;;;;;3.08;2.17;;;20.60;99.90;;;;;;4934014;28;20035;-36
2023/09/05 09:37:01;;;;;;;3.35;2.45;;;20.80;99.90;;;;;;4935261;28;20174;-38
2023/09/05 09:39:30;;;;;;;2.47;2.08;;;20.90;99.90;;;;;;4938376;28;20027;-41
2023/09/05 09:41:59;;;;;;;5.10;2.00;;;20.70;99.90;;;;;;4936027;28;20145;-38
2023/09/05 09:44:26;;;;;;;2.03;1.83;;;20.70;99.90;;;;;;4935086;28;20085;-40
2023/09/05 09:46:53;;;;;;;3.22;2.22;;;20.80;99.90;;;;;;4937128;28;20035;-37
2023/09/05 09:49:20;;;;;;;2.85;2.20;;;20.80;99.90;;;;;;4935750;28;20092;-37
2023/09/05 09:51:55;;;;;;;2.75;2.03;;;20.90;99.90;;;;;;4939595;28;20027;-38
2023/09/05 09:54:39;;;;;;;2.40;2.20;;;21.00;99.90;;;;;;4934762;28;20059;-37
2023/09/05 09:57:05;;;;;;;2.17;1.90;;;21.20;99.90;;;;;;4936093;28;21638;-40
2023/09/05 09:59:37;;;;;;;3.78;1.90;;;21.10;99.90;;;;;;4936054;28;20094;-33
2023/09/05 10:02:04;;;;;;;2.65;2.13;;;21.10;99.90;;;;;;4941073;28;20190;-30
2023/09/05 10:04:31;;;;;;;3.92;1.90;;;21.10;99.90;;;;;;4934192;28;20677;-32
2023/09/05 10:06:57;;;;;;;2.72;2.20;;;21.40;99.90;;;;;;4941789;28;20051;-35
2023/09/05 10:09:24;;;;;;;3.40;2.50;;;21.40;99.90;;;;;;4939645;28;20726;-32
2023/09/05 10:11:50;;;;;;;3.67;2.03;;;21.40;99.90;;;;;;4942566;28;20031;-34
2023/09/05 10:14:16;;;;;;;3.05;2.28;;;21.50;99.90;;;;;;4939214;28;20041;-34
2023/09/05 10:16:44;;;;;;;2.20;2.00;;;21.60;99.90;;;;;;4937349;28;20035;-33
2023/09/05 10:19:10;;;;;;;2.03;1.80;;;21.50;99.90;;;;;;4937209;28;20233;-39
2023/09/05 10:21:37;;;;;;;2.42;2.22;;;21.70;99.90;;;;;;4937292;28;20703;-39
2023/09/05 10:24:05;;;;;;;2.85;2.00;;;21.70;99.90;;;;;;4930134;28;20043;-36
2023/09/05 10:26:31;;;;;;;2.45;2.20;;;21.70;99.90;;;;;;4961758;28;20027;-33
2023/09/05 10:28:58;;;;;;;3.10;1.90;;;21.70;99.90;;;;;;4930076;28;20075;-36
2023/09/05 10:31:25;;;;;;;2.95;1.92;;;21.90;99.90;;;;;;4932888;28;20030;-38
2023/09/05 10:33:50;;;;;;;2.38;2.17;;;22.10;99.90;;;;;;4933723;28;20495;-37
2023/09/05 10:36:38;;;;;;;2.38;2.17;;;22.00;99.90;;;;;;4935782;28;20109;-38
2023/09/05 10:39:27;;;;;;;3.25;2.50;;;22.10;99.90;;;;;;4935354;28;20031;-36
2023/09/05 10:41:53;;;;;;;3.22;2.22;;;22.10;99.90;;;;;;4935028;28;20046;-38
2023/09/05 10:44:18;;;;;;;2.55;2.10;;;22.10;99.90;;;;;;4934062;28;21501;-39
2023/09/05 10:46:50;;;;;;;3.53;2.20;;;22.20;99.90;;;;;;4938767;28;20035;-37
2023/09/05 10:49:16;;;;;;;2.40;2.20;;;22.30;99.90;;;;;;4935498;28;20038;-33
2023/09/05 10:52:17;;;;;;;2.90;1.90;;;22.20;99.90;;;;;;4934556;28;21311;-35
2023/09/05 10:54:43;;;;;;;1.70;1.60;;;22.20;99.90;;;;;;4935840;28;20492;-37
2023/09/05 10:57:33;;;;;;;2.42;2.13;;;22.20;99.90;;;;;;4938717;28;20118;-33
2023/09/05 10:59:58;;;;;;;4.55;2.40;;;22.30;99.90;;;;;;4935327;28;20046;-37
2023/09/05 11:02:25;;;;;;;2.30;2.03;;;22.60;99.90;;;;;;4937423;28;20101;-36
2023/09/05 11:04:53;;;;;;;3.03;2.40;;;22.70;99.90;;;;;;4939709;28;20685;-39
2023/09/05 11:07:21;;;;;;;4.20;2.28;;;22.70;99.90;;;;;;4940023;28;20748;-35
2023/09/05 11:09:49;;;;;;;3.80;2.20;;;22.60;99.90;;;;;;4943851;28;20477;-32
2023/09/05 11:12:18;;;;;;;2.40;2.15;;;22.60;99.90;;;;;;4938845;28;20031;-36
2023/09/05 11:14:45;;;;;;;3.08;2.33;;;22.80;99.90;;;;;;4948979;28;20036;-31
2023/09/05 11:17:16;;;;;;;2.60;2.08;;;22.50;99.90;;;;;;4941395;28;20472;-36
2023/09/05 11:19:47;;;;;;;3.60;2.10;;;22.60;99.90;;;;;;4963518;28;20481;-36
2023/09/05 11:22:24;;;;;;;2.17;1.98;;;22.70;99.90;;;;;;4938994;28;20046;-31
2023/09/05 11:24:58;;;;;;;4.30;2.07;;;22.80;99.90;;;;;;4939970;28;20031;-32
2023/09/05 11:27:26;;;;;;;3.60;1.92;;;22.80;99.90;;;;;;4934597;29;20178;-37
2023/09/05 11:29:52;;;;;;;;;;;22.80;99.90;;;;;;4945680;28;20047;-33
2023/09/05 11:32:19;;;;;;;2.03;1.65;;;23.00;99.90;;;;;;4944137;28;19986;-34
2023/09/05 11:34:46;;;;;;;1.70;1.60;;;23.10;99.90;;;;;;4945047;28;20054;-34
2023/09/05 11:37:20;;;;;;;2.42;1.85;;;23.00;99.90;;;;;;4944860;28;20031;-36
2023/09/05 11:39:49;;;;;;;7.43;1.92;;;23.00;99.90;;;;;;4942844;28;20050;-34
2023/09/05 11:42:30;;;;;;;2.85;2.00;;;23.00;99.90;;;;;;4943539;28;20031;-34
2023/09/05 11:44:57;;;;;;;2.90;1.75;;;23.20;99.90;;;;;;4940455;28;20049;-35
2023/09/05 11:47:24;;;;;;;2.13;1.95;;;23.10;99.90;;;;;;4940747;28;20079;-32
2023/09/05 11:49:52;;;;;;;2.15;1.90;;;23.10;99.90;;;;;;4940900;28;20027;-33
2023/09/05 11:52:19;;;;;;;;;;;23.30;99.90;;;;;;4940221;28;20114;-35
2023/09/05 11:54:48;;;;;;;5.32;2.83;;;23.50;99.90;;;;;;4939237;28;19957;-33
2023/09/05 11:57:16;;;;;;;2.90;2.05;;;23.40;99.90;;;;;;4945021;28;20053;-33
2023/09/05 11:59:42;;;;;;;2.40;2.20;;;23.30;99.90;;;;;;4938927;28;21791;-36
2023/09/05 12:02:09;;;;;;;3.38;2.00;;;23.40;99.90;;;;;;4941915;28;20039;-33
2023/09/05 12:04:40;;;;;;;3.42;2.42;;;23.30;99.90;;;;;;4940333;28;20109;-34
2023/09/05 12:07:06;;;;;;;2.45;1.92;;;23.20;99.90;;;;;;4940637;28;20031;-38
2023/09/05 12:09:32;;;;;;;2.78;2.00;;;23.40;99.90;;;;;;4939437;28;20758;-34
2023/09/05 12:12:08;;;;;;;2.80;1.95;;;23.40;99.90;;;;;;4944379;28;20043;-36
2023/09/05 12:14:54;;;;;;;2.45;2.10;;;23.40;99.90;;;;;;4939533;28;20035;-35
2023/09/05 12:17:22;;;;;;;2.47;1.95;;;23.40;99.90;;;;;;4940986;28;20032;-34
2023/09/05 12:19:49;;;;;;;1.88;1.77;;;23.40;99.90;;;;;;4941365;28;20049;-32
2023/09/05 12:22:21;;;;;;;2.90;2.17;;;23.40;99.90;;;;;;4939220;28;20038;-34
2023/09/05 12:24:46;;;;;;;3.33;2.10;;;23.50;99.90;;;;;;4937082;28;20405;-37
2023/09/05 12:27:24;;;;;;;4.35;2.10;;;23.60;99.90;;;;;;4943349;28;20035;-34
2023/09/05 12:29:52;;;;;;;5.30;2.40;;;23.50;99.90;;;;;;4942407;28;20046;-36
2023/09/05 12:32:18;;;;;;;2.20;2.00;;;23.50;99.90;;;;;;4940559;28;20040;-31
2023/09/05 12:34:43;;;;;;;2.65;2.03;;;23.70;99.90;;;;;;4947704;28;20026;-31
2023/09/05 12:37:09;;;;;;;2.53;2.10;;;23.70;99.90;;;;;;4937983;28;20200;-36
2023/09/05 12:39:35;;;;;;;3.58;1.88;;;23.60;99.90;;;;;;4936304;28;20627;-35
2023/09/05 12:42:00;;;;;;;3.30;2.10;;;23.50;99.90;;;;;;4942672;28;20134;-32
2023/09/05 12:44:29;;;;;;;1.90;1.80;;;23.60;99.90;;;;;;4941748;28;20039;-35
2023/09/05 12:46:55;;;;;;;3.47;2.15;;;23.60;99.90;;;;;;4943045;28;20042;-36
2023/09/05 12:49:21;;;;;;;2.63;1.75;;;23.60;99.90;;;;;;4943294;28;20058;-36
2023/09/05 12:51:46;;;;;;;2.08;1.80;;;23.70;99.90;;;;;;4942117;28;20035;-35